createdAt,value
2023-03-12T00:02:16.526Z,8.95
2023-03-12T00:04:45.050Z,8.10
2023-03-12T00:07:14.987Z,8.73
2023-03-12T00:09:43.619Z,7.55
2023-03-12T00:12:12.150Z,10.27
2023-03-12T00:14:40.793Z,11.38
2023-03-12T00:17:09.367Z,14.48
2023-03-12T00:19:37.968Z,8.05
2023-03-12T00:22:06.745Z,9.05
2023-03-12T00:24:36.799Z,7.55
2023-03-12T00:27:05.638Z,11.88
2023-03-12T00:29:34.279Z,8.07
2023-03-12T00:32:02.955Z,8.63
2023-03-12T00:34:31.463Z,8.32
2023-03-12T00:37:00.003Z,8.48
2023-03-12T00:39:28.908Z,5.32
2023-03-12T00:41:58.985Z,7.55
2023-03-12T00:44:27.607Z,6.43
2023-03-12T00:46:56.305Z,6.10
2023-03-12T00:49:24.918Z,6.78
2023-03-12T00:51:54.134Z,6.90
2023-03-12T00:54:22.905Z,8.32
2023-03-12T00:56:51.963Z,10.48
2023-03-12T00:59:21.977Z,4.78
2023-03-12T01:01:50.490Z,5.57
2023-03-12T01:04:19.193Z,6.03
2023-03-12T01:06:47.806Z,7.22
2023-03-12T01:09:16.056Z,6.28
2023-03-12T01:11:44.591Z,6.70
2023-03-12T01:14:13.424Z,5.03
2023-03-12T01:16:43.350Z,6.63
2023-03-12T01:19:12.337Z,9.07
2023-03-12T01:21:41.056Z,4.38
2023-03-12T01:24:10.122Z,6.53
2023-03-12T01:26:38.727Z,6.07
2023-03-12T01:29:07.494Z,4.55
2023-03-12T01:31:36.064Z,6.35
2023-03-12T01:34:05.990Z,6.22
2023-03-12T01:36:34.739Z,4.45
2023-03-12T01:39:03.365Z,5.35
2023-03-12T01:41:33.215Z,4.88
2023-03-12T01:44:03.881Z,6.43
2023-03-12T01:46:33.861Z,5.15
2023-03-12T01:49:08.342Z,6.40
2023-03-12T01:51:38.009Z,6.30
2023-03-12T01:54:08.501Z,6.28
2023-03-12T01:56:37.495Z,6.20
2023-03-12T01:59:11.104Z,4.57
2023-03-12T02:01:40.259Z,3.63
2023-03-12T02:04:10.346Z,3.97
2023-03-12T02:06:41.102Z,4.57
2023-03-12T02:09:09.680Z,4.40
2023-03-12T02:11:38.272Z,4.53
2023-03-12T02:14:06.794Z,3.67
2023-03-12T02:16:35.537Z,4.30
2023-03-12T02:19:04.143Z,5.00
2023-03-12T02:21:37.672Z,4.45
2023-03-12T02:24:12.145Z,5.10
2023-03-12T02:26:42.113Z,3.85
2023-03-12T02:29:10.865Z,4.93
2023-03-12T02:31:42.997Z,3.38
2023-03-12T02:34:11.925Z,4.38
2023-03-12T02:36:40.517Z,4.70
2023-03-12T02:39:09.139Z,4.70
2023-03-12T02:41:39.116Z,3.72
2023-03-12T02:44:11.318Z,3.85
2023-03-12T02:46:41.720Z,3.55
2023-03-12T02:49:12.040Z,3.95
2023-03-12T02:51:40.927Z,3.80
2023-03-12T02:54:09.653Z,3.85
2023-03-12T02:56:38.238Z,4.20
2023-03-12T02:59:08.544Z,5.00
2023-03-12T03:01:37.102Z,4.32
2023-03-12T03:04:07.140Z,4.30
2023-03-12T03:06:35.839Z,5.00
2023-03-12T03:09:05.377Z,3.25
2023-03-12T03:11:34.040Z,5.22
2023-03-12T03:14:04.117Z,3.53
2023-03-12T03:16:34.227Z,4.07
2023-03-12T03:19:02.908Z,4.60
2023-03-12T03:21:31.557Z,3.65
2023-03-12T03:24:00.263Z,3.88
2023-03-12T03:26:28.845Z,3.75
2023-03-12T03:28:57.480Z,3.42
2023-03-12T03:31:26.147Z,4.32
2023-03-12T03:33:56.238Z,4.38
2023-03-12T03:36:24.779Z,2.88
2023-03-12T03:38:53.437Z,3.45
2023-03-12T03:41:23.032Z,3.10
2023-03-12T03:43:51.608Z,3.25
2023-03-12T03:46:20.216Z,4.07
2023-03-12T03:48:51.037Z,3.60
2023-03-12T03:51:21.157Z,3.15
2023-03-12T03:53:49.852Z,5.07
2023-03-12T03:56:18.383Z,3.20
2023-03-12T03:58:46.970Z,3.25
2023-03-12T04:01:15.751Z,3.17
2023-03-12T04:03:44.301Z,4.57
2023-03-12T04:06:13.149Z,3.15
2023-03-12T04:08:43.284Z,2.92
2023-03-12T04:11:13.510Z,3.35
2023-03-12T04:13:42.273Z,3.40
2023-03-12T04:16:11.161Z,4.30
2023-03-12T04:18:40.179Z,3.17
2023-03-12T04:21:10.090Z,3.60
2023-03-12T04:23:38.835Z,4.28
2023-03-12T04:26:09.132Z,3.42
2023-03-12T04:28:37.948Z,3.30
2023-03-12T04:31:07.990Z,3.10
2023-03-12T04:33:38.708Z,3.13
2023-03-12T04:36:08.364Z,3.28
2023-03-12T04:38:36.913Z,3.72
2023-03-12T04:41:08.485Z,3.60
2023-03-12T04:43:37.140Z,3.05
2023-03-12T04:46:06.262Z,2.95
2023-03-12T04:48:35.015Z,3.80
2023-03-12T04:51:03.775Z,3.30
2023-03-12T04:53:32.352Z,3.08
2023-03-12T04:56:01.132Z,3.17
2023-03-12T04:58:31.092Z,4.43
2023-03-12T05:00:59.597Z,2.92
2023-03-12T05:03:28.186Z,3.53
2023-03-12T05:05:57.098Z,4.65
2023-03-12T05:08:25.632Z,3.30
2023-03-12T05:10:54.372Z,3.30
2023-03-12T05:13:23.715Z,3.08
2023-03-12T05:15:54.087Z,3.20
2023-03-12T05:18:22.732Z,3.35
2023-03-12T05:21:00.773Z,2.75
2023-03-12T05:23:29.830Z,3.28
2023-03-12T05:25:58.452Z,3.30
2023-03-12T05:28:28.450Z,3.22
2023-03-12T05:30:59.544Z,3.00
2023-03-12T05:33:28.839Z,3.17
2023-03-12T05:35:57.769Z,4.03
2023-03-12T05:38:26.370Z,2.65
2023-03-12T05:40:55.430Z,3.00
2023-03-12T05:43:24.329Z,3.38
2023-03-12T05:45:52.918Z,2.97
2023-03-12T05:48:22.982Z,2.63
2023-03-12T05:50:51.577Z,3.10
2023-03-12T05:53:20.104Z,3.15
2023-03-12T05:55:48.684Z,2.67
2023-03-12T05:58:17.297Z,2.72
2023-03-12T06:00:46.180Z,3.20
2023-03-12T06:03:14.894Z,2.97
2023-03-12T06:05:45.920Z,2.92
2023-03-12T06:08:14.622Z,3.08
2023-03-12T06:10:43.401Z,3.38
2023-03-12T06:13:12.100Z,3.00
2023-03-12T06:15:40.699Z,2.55
2023-03-12T06:18:09.374Z,2.58
2023-03-12T06:20:37.994Z,3.50
2023-03-12T06:23:07.971Z,2.63
2023-03-12T06:25:36.548Z,3.03
2023-03-12T06:28:05.587Z,4.30
2023-03-12T06:30:34.209Z,2.42
2023-03-12T06:33:04.175Z,3.67
2023-03-12T06:35:32.881Z,2.95
2023-03-12T06:38:01.554Z,2.40
2023-03-12T06:40:31.760Z,6.18
2023-03-12T06:43:00.321Z,3.35
2023-03-12T06:45:28.930Z,6.65
2023-03-12T06:47:57.468Z,3.10
2023-03-12T06:50:26.199Z,4.00
2023-03-12T06:52:54.759Z,2.88
2023-03-12T06:55:23.502Z,6.82
2023-03-12T06:57:53.466Z,2.60
2023-03-12T07:00:23.230Z,2.63
2023-03-12T07:02:51.887Z,3.03
2023-03-12T07:05:20.531Z,2.88
2023-03-12T07:07:49.475Z,3.83
2023-03-12T07:10:18.355Z,2.75
2023-03-12T07:12:47.180Z,3.22
2023-03-12T07:15:17.471Z,2.67
2023-03-12T07:17:46.121Z,2.88
2023-03-12T07:20:14.987Z,2.65
2023-03-12T07:22:43.602Z,2.70
2023-03-12T07:25:12.462Z,3.13
2023-03-12T07:27:41.067Z,5.00
2023-03-12T07:30:11.616Z,2.78
2023-03-12T07:32:41.759Z,3.92
2023-03-12T07:35:11.589Z,2.72
2023-03-12T07:37:40.637Z,3.10
2023-03-12T07:40:11.128Z,2.45
2023-03-12T07:42:39.635Z,3.72
2023-03-12T07:45:09.534Z,2.60
2023-03-12T07:47:38.291Z,2.90
2023-03-12T07:50:09.244Z,2.50
2023-03-12T07:52:37.896Z,3.58
2023-03-12T07:55:08.197Z,2.58
2023-03-12T07:57:39.121Z,2.83
2023-03-12T08:00:10.966Z,2.78
2023-03-12T08:02:39.996Z,2.70
2023-03-12T08:05:10.737Z,2.47
2023-03-12T08:07:39.802Z,4.38
2023-03-12T08:10:10.327Z,3.15
2023-03-12T08:12:39.418Z,2.95
2023-03-12T08:15:09.630Z,2.97
2023-03-12T08:17:38.139Z,2.58
2023-03-12T08:20:10.641Z,2.63
2023-03-12T08:22:39.414Z,2.92
2023-03-12T08:25:09.009Z,2.58
2023-03-12T08:27:37.554Z,3.40
2023-03-12T08:30:07.560Z,2.55
2023-03-12T08:32:36.274Z,2.80
2023-03-12T08:35:05.821Z,3.08
2023-03-12T08:37:35.778Z,2.75
2023-03-12T08:40:09.175Z,2.50
2023-03-12T08:42:37.702Z,3.25
2023-03-12T08:45:07.237Z,2.80
2023-03-12T08:47:35.755Z,3.10
2023-03-12T08:50:04.255Z,2.92
2023-03-12T08:52:32.910Z,2.53
2023-03-12T08:55:02.831Z,2.70
2023-03-12T08:57:31.503Z,2.78
2023-03-12T09:00:00.129Z,2.25
2023-03-12T09:02:29.440Z,4.20
2023-03-12T09:04:58.074Z,3.25
2023-03-12T09:07:26.697Z,2.80
2023-03-12T09:09:56.600Z,5.38
2023-03-12T09:12:26.581Z,5.28
2023-03-12T09:15:03.544Z,4.20
2023-03-12T09:17:33.094Z,7.80
2023-03-12T09:20:01.695Z,9.02
2023-03-12T09:22:30.823Z,7.47
2023-03-12T09:24:59.336Z,4.18
2023-03-12T09:27:29.500Z,5.15
2023-03-12T09:30:00.463Z,4.65
2023-03-12T09:32:29.735Z,4.25
2023-03-12T09:34:58.369Z,4.40
2023-03-12T09:37:26.945Z,4.22
2023-03-12T09:39:55.772Z,3.42
2023-03-12T09:42:26.231Z,4.22
2023-03-12T09:44:56.669Z,3.40
2023-03-12T09:47:30.354Z,2.85
2023-03-12T09:50:01.339Z,4.10
2023-03-12T09:52:30.904Z,3.67
2023-03-12T09:55:03.757Z,2.95
2023-03-12T09:57:32.437Z,6.13
2023-03-12T10:00:02.476Z,2.67
2023-03-12T10:02:56.068Z,2.63
2023-03-12T10:05:31.961Z,3.15
2023-03-12T10:08:13.700Z,2.67
2023-03-12T10:10:55.051Z,2.67
2023-03-12T10:13:34.803Z,3.58
2023-03-12T10:16:13.188Z,4.05
2023-03-12T10:18:58.935Z,3.42
2023-03-12T10:21:30.776Z,2.78
2023-03-12T10:24:12.738Z,4.45
2023-03-12T10:26:42.274Z,3.38
2023-03-12T10:29:14.943Z,2.78
2023-03-12T10:31:52.973Z,3.08
2023-03-12T10:34:26.051Z,4.65
2023-03-12T10:36:55.117Z,3.97
2023-03-12T10:39:23.786Z,3.72
2023-03-12T10:41:53.143Z,3.53
2023-03-12T10:44:23.409Z,2.97
2023-03-12T10:47:06.797Z,4.00
2023-03-12T10:49:36.318Z,2.95
2023-03-12T10:52:11.316Z,2.72
2023-03-12T10:54:40.909Z,3.50
2023-03-12T10:57:09.794Z,2.45
2023-03-12T10:59:39.844Z,5.40
2023-03-12T11:02:34.184Z,2.63
2023-03-12T11:05:03.744Z,7.53
2023-03-12T11:07:33.036Z,20.70
2023-03-12T11:10:18.060Z,58.53
2023-03-12T11:13:04.138Z,38.33
2023-03-12T11:15:40.472Z,32.85
2023-03-12T11:18:38.051Z,57.85
2023-03-12T11:21:18.144Z,45.92
2023-03-12T11:24:07.204Z,55.53
2023-03-12T11:26:41.011Z,53.33
2023-03-12T11:29:21.501Z,58.65
2023-03-12T11:31:57.428Z,44.08
2023-03-12T11:34:29.727Z,45.00
2023-03-12T11:37:06.346Z,36.15
2023-03-12T11:39:45.378Z,40.42
2023-03-12T11:42:23.913Z,38.30
2023-03-12T11:44:59.817Z,44.85
2023-03-12T11:47:39.158Z,40.63
2023-03-12T11:50:20.230Z,36.50
2023-03-12T11:53:02.263Z,42.42
2023-03-12T11:55:43.591Z,38.40
2023-03-12T11:58:28.490Z,33.45
2023-03-12T12:01:00.120Z,39.90
2023-03-12T12:04:28.926Z,47.67
2023-03-12T12:07:03.669Z,48.00
2023-03-12T12:09:36.962Z,48.08
2023-03-12T12:12:21.989Z,50.17
2023-03-12T12:15:02.213Z,48.53
2023-03-12T12:17:41.759Z,53.50
2023-03-12T12:20:21.720Z,58.20
2023-03-12T12:23:11.592Z,62.47
2023-03-12T12:25:51.326Z,51.85
2023-03-12T12:28:31.862Z,52.55
2023-03-12T12:31:14.258Z,48.88
2023-03-12T12:34:02.438Z,46.05
2023-03-12T12:36:33.768Z,45.53
2023-03-12T12:39:07.876Z,41.33
2023-03-12T12:41:37.561Z,48.58
2023-03-12T12:44:07.708Z,39.75
2023-03-12T12:46:37.425Z,44.15
2023-03-12T12:49:10.107Z,38.13
2023-03-12T12:51:41.887Z,35.55
2023-03-12T12:54:16.767Z,38.22
2023-03-12T12:56:48.727Z,30.38
2023-03-12T12:59:32.722Z,28.20
2023-03-12T13:02:02.202Z,35.45
2023-03-12T13:04:33.821Z,30.48
2023-03-12T13:07:04.695Z,29.80
2023-03-12T13:09:43.541Z,29.08
2023-03-12T13:12:19.269Z,31.30
2023-03-12T13:14:48.398Z,34.00
2023-03-12T13:17:29.120Z,32.78
2023-03-12T13:20:13.291Z,27.00
2023-03-12T13:23:24.632Z,32.15
2023-03-12T13:26:00.928Z,24.45
2023-03-12T13:28:36.445Z,27.55
2023-03-12T13:31:36.919Z,31.63
2023-03-12T13:34:53.267Z,26.58
2023-03-12T13:37:59.408Z,27.80
2023-03-12T13:41:02.135Z,29.40
2023-03-12T13:43:57.988Z,25.40
2023-03-12T13:46:45.867Z,33.60
2023-03-12T13:49:23.319Z,28.50
2023-03-12T13:52:02.153Z,32.30
2023-03-12T13:54:35.044Z,40.80
2023-03-12T13:57:12.184Z,52.30
2023-03-12T13:59:45.367Z,40.55
2023-03-12T14:02:22.865Z,49.50
2023-03-12T14:04:51.453Z,44.15
2023-03-12T14:08:06.033Z,43.08
2023-03-12T14:10:41.739Z,44.67
2023-03-12T14:13:21.978Z,38.33
2023-03-12T14:15:54.165Z,50.58
2023-03-12T14:18:24.488Z,39.30
2023-03-12T14:20:56.204Z,35.15
2023-03-12T14:23:25.866Z,28.92
2023-03-12T14:25:56.667Z,32.70
2023-03-12T14:28:26.697Z,30.80
2023-03-12T14:30:59.742Z,28.05
2023-03-12T14:33:31.012Z,29.40
2023-03-12T14:36:03.188Z,29.67
2023-03-12T14:38:34.070Z,27.63
2023-03-12T14:41:04.758Z,32.95
2023-03-12T14:43:35.693Z,25.85
2023-03-12T14:46:05.961Z,29.02
2023-03-12T14:48:36.552Z,27.27
2023-03-12T14:51:07.000Z,29.17
2023-03-12T14:53:36.740Z,25.35
2023-03-12T14:56:07.765Z,21.02
2023-03-12T14:58:44.489Z,24.17
2023-03-12T15:01:15.823Z,25.77
2023-03-12T15:03:46.474Z,17.92
2023-03-12T15:06:19.096Z,21.55
2023-03-12T15:08:49.094Z,24.77
2023-03-12T15:11:23.243Z,22.85
2023-03-12T15:13:53.910Z,18.80
2023-03-12T15:16:22.653Z,24.10
2023-03-12T15:18:51.461Z,22.30
2023-03-12T15:21:20.434Z,20.98
2023-03-12T15:23:50.192Z,21.25
2023-03-12T15:26:29.583Z,17.88
2023-03-12T15:29:00.552Z,18.23
2023-03-12T15:31:29.336Z,22.70
2023-03-12T15:34:02.768Z,16.42
2023-03-12T15:36:31.894Z,21.05
2023-03-12T15:39:02.308Z,18.15
2023-03-12T15:41:42.981Z,14.85
2023-03-12T15:44:20.259Z,18.70
2023-03-12T15:46:49.560Z,15.77
2023-03-12T15:49:24.474Z,17.95
2023-03-12T15:52:05.845Z,19.35
2023-03-12T15:54:35.236Z,14.13
2023-03-12T15:57:24.089Z,18.23
2023-03-12T16:00:18.206Z,18.02
2023-03-12T16:02:52.998Z,12.70
2023-03-12T16:05:22.588Z,32.38
2023-03-12T16:07:51.557Z,13.77
2023-03-12T16:10:22.070Z,15.00
2023-03-12T16:12:51.227Z,16.05
2023-03-12T16:15:30.438Z,17.77
2023-03-12T16:17:59.022Z,11.50
2023-03-12T16:20:27.624Z,17.70
2023-03-12T16:22:56.423Z,13.63
2023-03-12T16:25:25.906Z,18.35
2023-03-12T16:27:57.094Z,14.43
2023-03-12T16:30:29.328Z,16.20
2023-03-12T16:32:58.427Z,15.32
2023-03-12T16:35:28.188Z,13.10
2023-03-12T16:37:56.982Z,13.90
2023-03-12T16:40:33.447Z,13.95
2023-03-12T16:43:03.914Z,11.60
2023-03-12T16:45:36.435Z,13.45
2023-03-12T16:48:06.546Z,10.65
2023-03-12T16:50:35.072Z,12.63
2023-03-12T16:53:04.982Z,14.13
2023-03-12T16:55:44.646Z,11.80
2023-03-12T16:58:14.211Z,12.35
2023-03-12T17:00:44.242Z,9.70
2023-03-12T17:03:20.076Z,11.95
2023-03-12T17:05:48.952Z,10.88
2023-03-12T17:08:17.533Z,8.73
2023-03-12T17:10:46.721Z,11.82
2023-03-12T17:13:21.350Z,13.45
2023-03-12T17:15:51.430Z,13.10
2023-03-12T17:18:20.307Z,10.35
2023-03-12T17:20:49.244Z,11.65
2023-03-12T17:23:17.856Z,13.52
2023-03-12T17:25:47.148Z,12.20
2023-03-12T17:28:16.356Z,11.82
2023-03-12T17:30:45.003Z,10.93
2023-03-12T17:33:18.368Z,8.38
2023-03-12T17:35:47.219Z,12.48
2023-03-12T17:38:16.082Z,9.80
2023-03-12T17:40:45.229Z,13.18
2023-03-12T17:43:13.818Z,13.80
2023-03-12T17:45:43.126Z,18.63
2023-03-12T17:48:11.689Z,16.00
2023-03-12T17:50:41.676Z,11.93
2023-03-12T17:53:10.293Z,14.35
2023-03-12T17:55:38.808Z,15.25
2023-03-12T17:58:07.401Z,15.70
2023-03-12T18:00:35.968Z,11.25
2023-03-12T18:03:04.839Z,16.63
2023-03-12T18:05:33.744Z,13.88
2023-03-12T18:08:03.766Z,13.20
2023-03-12T18:10:33.013Z,12.52
2023-03-12T18:13:01.590Z,12.18
2023-03-12T18:15:30.259Z,9.93
2023-03-12T18:17:59.820Z,13.15
2023-03-12T18:20:37.843Z,12.15
2023-03-12T18:23:08.470Z,15.60
2023-03-12T18:25:38.102Z,17.38
2023-03-12T18:28:06.968Z,14.25
2023-03-12T18:30:35.910Z,12.75
2023-03-12T18:33:04.868Z,15.55
2023-03-12T18:35:33.514Z,11.32
2023-03-12T18:38:02.150Z,11.55
2023-03-12T18:40:33.098Z,10.80
2023-03-12T18:43:01.847Z,14.70
2023-03-12T18:45:30.627Z,12.73
2023-03-12T18:47:59.659Z,15.82
2023-03-12T18:50:28.580Z,14.00
2023-03-12T18:52:57.304Z,16.40
2023-03-12T18:55:26.554Z,18.23
2023-03-12T18:57:56.677Z,16.30
2023-03-12T19:00:26.482Z,11.95
2023-03-12T19:02:55.352Z,16.52
2023-03-12T19:05:24.104Z,13.15
2023-03-12T19:07:52.792Z,10.18
2023-03-12T19:10:21.744Z,13.55
2023-03-12T19:12:53.199Z,10.40
2023-03-12T19:15:24.573Z,13.43
2023-03-12T19:17:54.322Z,10.95
2023-03-12T19:20:23.093Z,11.43
2023-03-12T19:22:51.701Z,13.75
2023-03-12T19:25:21.175Z,10.30
2023-03-12T19:27:49.910Z,16.33
2023-03-12T19:30:19.032Z,9.90
2023-03-12T19:32:48.989Z,10.43
2023-03-12T19:35:17.878Z,11.18
2023-03-12T19:37:46.462Z,14.20
2023-03-12T19:40:15.375Z,11.90
2023-03-12T19:42:44.032Z,12.70
2023-03-12T19:45:13.967Z,10.65
2023-03-12T19:47:42.737Z,14.38
2023-03-12T19:50:13.675Z,13.23
2023-03-12T19:52:42.506Z,13.23
2023-03-12T19:55:12.170Z,9.15
2023-03-12T19:57:41.104Z,14.57
2023-03-12T20:00:12.465Z,12.35
2023-03-12T20:02:41.491Z,12.07
2023-03-12T20:05:12.648Z,10.90
2023-03-12T20:07:41.608Z,12.55
2023-03-12T20:10:12.871Z,10.13
2023-03-12T20:12:41.543Z,10.60
2023-03-12T20:15:11.078Z,8.80
2023-03-12T20:17:39.647Z,11.95
2023-03-12T20:20:10.197Z,9.23
2023-03-12T20:22:40.269Z,9.75
2023-03-12T20:25:10.490Z,8.48
2023-03-12T20:27:39.332Z,11.88
2023-03-12T20:30:09.889Z,11.63
2023-03-12T20:32:38.686Z,8.27
2023-03-12T20:35:08.580Z,11.35
2023-03-12T20:37:37.304Z,9.48
2023-03-12T20:40:09.306Z,11.57
2023-03-12T20:42:38.157Z,9.30
2023-03-12T20:45:08.328Z,14.95
2023-03-12T20:47:37.771Z,12.90
2023-03-12T20:50:07.088Z,9.65
2023-03-12T20:52:35.753Z,9.25
2023-03-12T20:55:06.506Z,11.15
2023-03-12T20:57:35.465Z,13.02
2023-03-12T21:00:04.315Z,8.57
2023-03-12T21:02:33.264Z,13.65
2023-03-12T21:05:01.996Z,8.60
2023-03-12T21:07:31.449Z,9.63
2023-03-12T21:09:59.959Z,7.80
2023-03-12T21:12:29.909Z,8.80
2023-03-12T21:15:06.257Z,10.90
2023-03-12T21:17:36.731Z,11.15
2023-03-12T21:20:09.656Z,8.52
2023-03-12T21:22:38.822Z,7.93
2023-03-12T21:25:08.623Z,10.98
2023-03-12T21:27:49.958Z,7.88
2023-03-12T21:30:20.321Z,10.90
2023-03-12T21:32:48.974Z,8.63
2023-03-12T21:35:20.101Z,9.80
2023-03-12T21:37:48.882Z,11.05
2023-03-12T21:40:18.037Z,13.68
2023-03-12T21:42:47.919Z,8.88
2023-03-12T21:45:16.839Z,7.88
2023-03-12T21:47:45.383Z,7.85
2023-03-12T21:50:13.980Z,9.63
2023-03-12T21:52:47.859Z,10.25
2023-03-12T21:55:16.938Z,12.18
2023-03-12T21:57:47.422Z,5.95
2023-03-12T22:00:16.638Z,9.88
2023-03-12T22:02:47.325Z,7.30
2023-03-12T22:05:16.068Z,8.55
2023-03-12T22:07:44.937Z,8.90
2023-03-12T22:10:13.611Z,10.35
2023-03-12T22:12:42.482Z,10.48
2023-03-12T22:15:13.087Z,10.27
2023-03-12T22:17:41.683Z,8.80
2023-03-12T22:20:12.273Z,9.02
2023-03-12T22:22:40.832Z,8.93
2023-03-12T22:25:10.474Z,8.82
2023-03-12T22:27:39.046Z,7.07
2023-03-12T22:30:09.359Z,6.35
2023-03-12T22:32:40.161Z,8.55
2023-03-12T22:35:09.797Z,8.70
2023-03-12T22:37:38.410Z,8.80
2023-03-12T22:40:09.883Z,10.23
2023-03-12T22:42:41.205Z,17.30
2023-03-12T22:45:11.169Z,33.00
2023-03-12T22:47:41.178Z,30.67
2023-03-12T22:50:11.743Z,37.30
2023-03-12T22:52:40.531Z,34.10
2023-03-12T22:55:10.249Z,42.15
2023-03-12T22:57:39.050Z,29.77
2023-03-12T23:00:11.047Z,30.05
2023-03-12T23:02:41.314Z,27.15
2023-03-12T23:05:10.553Z,29.80
2023-03-12T23:07:39.424Z,25.10
2023-03-12T23:10:09.363Z,26.23
2023-03-12T23:12:37.976Z,28.67
2023-03-12T23:15:07.721Z,26.60
2023-03-12T23:17:36.372Z,23.77
2023-03-12T23:20:07.796Z,23.60
2023-03-12T23:22:36.764Z,29.13
2023-03-12T23:25:05.984Z,22.08
2023-03-12T23:27:34.630Z,23.02
2023-03-12T23:30:03.216Z,23.42
2023-03-12T23:32:32.345Z,20.88
2023-03-12T23:35:00.940Z,24.35
2023-03-12T23:37:31.220Z,18.42
2023-03-12T23:39:59.748Z,21.95
2023-03-12T23:42:28.792Z,21.13
2023-03-12T23:44:57.381Z,20.17
2023-03-12T23:47:26.009Z,17.60
2023-03-12T23:49:54.819Z,21.38
2023-03-12T23:52:23.506Z,15.93
2023-03-12T23:54:53.541Z,16.05
2023-03-12T23:57:22.154Z,15.80
2023-03-12T23:59:50.885Z,19.60
